Weather at Hastings / Sweetwater Farms Airport

Public forecast

Using degrees Celsius for public forecast. Weather courtesy of forecast.io.

Closest aviation weather report (METAR) to Hastings / Sweetwater Farms Airport

Closest report is Peterborough Municipal Airport, 20.0 nm (37.0 km) WSW.

2024/07/13 00:00 (retrieved 47 minutes ago)

CYPQ 130000Z AUTO 35004KT 9SM BKN110 BKN130 23/18 A3013 RMK SLP205 DENSITY ALT 1500FT

Closest aviation forecast (TAF) to Hastings / Sweetwater Farms Airport

Closest forecast is Peterborough Municipal Airport, 20.0 nm (37.0 km) WSW.

2024/07/12 20:00 (retrieved 5 hours ago)

TAF CYPQ 121940Z 1220/1302 14005KT P6SM BKN040 PROB30 1220/1224 VRB15G25KT 2SM TSRA BR BKN015 OVC030CB FM130000 24005KT P6SM SCT040 RMK FCST BASED ON AUTO OBS NXT FCST BY 131000Z